Time,TemperatureF,DewpointF,PressureIn,WindDirection,WindDirectionDegrees,WindSpeedMPH,WindSpeedGustMPH,Humidity,HourlyPrecipIn,Conditions,Clouds,dailyrainin,SoftwareType,DateUTC
2013-07-10 00:01:00,71.0,67.0,29.94,ENE,68,0.0,2.0,87,0.00,,,0.00,,2013-07-10 04:01:00,
2013-07-10 00:11:00,71.0,67.0,29.94,ENE,68,0.0,2.0,87,0.00,,,0.00,,2013-07-10 04:11:00,
2013-07-10 00:22:00,71.0,67.0,29.94,ENE,68,0.0,2.0,87,0.00,,,0.00,,2013-07-10 04:22:00,
2013-07-10 00:33:00,71.0,67.0,29.93,SSE,158,2.0,3.0,87,0.00,,,0.00,,2013-07-10 04:33:00,
2013-07-10 00:43:00,71.0,67.0,29.93,SSE,158,2.0,3.0,87,0.00,,,0.00,,2013-07-10 04:43:00,
2013-07-10 00:52:00,71.0,67.0,29.91,South,180,2.0,5.0,87,0.00,,,0.00,,2013-07-10 04:52:00,
2013-07-10 01:02:00,71.0,67.0,29.91,ENE,68,1.0,2.0,87,0.00,,,0.00,,2013-07-10 05:02:00,
2013-07-10 01:12:00,71.0,67.0,29.91,ENE,68,1.0,2.0,87,0.00,,,0.00,,2013-07-10 05:12:00,
2013-07-10 01:22:00,70.0,66.0,29.91,ESE,112,0.0,1.0,88,0.00,,,0.00,,2013-07-10 05:22:00,
2013-07-10 01:32:00,70.0,66.0,29.91,SSW,202,0.0,0.0,88,0.00,,,0.00,,2013-07-10 05:32:00,
2013-07-10 01:42:00,70.0,66.0,29.91,SSW,202,0.0,0.0,88,0.00,,,0.00,,2013-07-10 05:42:00,
2013-07-10 01:53:00,70.0,66.0,29.90,West,270,0.0,0.0,88,0.00,,,0.00,,2013-07-10 05:53:00,
2013-07-10 02:01:00,70.0,66.0,29.90,ENE,68,0.0,0.0,88,0.00,,,0.00,,2013-07-10 06:01:00,
2013-07-10 02:11:00,70.0,66.0,29.90,ENE,68,0.0,0.0,88,0.00,,,0.00,,2013-07-10 06:11:00,
2013-07-10 02:22:00,69.0,66.0,29.89,South,180,0.0,0.0,89,0.00,,,0.00,,2013-07-10 06:22:00,
2013-07-10 02:32:00,69.0,66.0,29.89,NE,45,0.0,0.0,89,0.00,,,0.00,,2013-07-10 06:32:00,
2013-07-10 02:42:00,69.0,66.0,29.89,NE,45,0.0,0.0,89,0.00,,,0.00,,2013-07-10 06:42:00,
2013-07-10 02:52:00,69.0,66.0,29.89,West,270,0.0,1.0,89,0.00,,,0.00,,2013-07-10 06:52:00,
2013-07-10 03:01:00,69.0,66.0,29.89,ESE,112,0.0,0.0,89,0.00,,,0.00,,2013-07-10 07:01:00,
2013-07-10 03:12:00,69.0,66.0,29.89,ESE,112,0.0,0.0,89,0.00,,,0.00,,2013-07-10 07:12:00,
2013-07-10 03:22:00,68.0,65.0,29.88,West,270,0.0,0.0,90,0.00,,,0.00,,2013-07-10 07:22:00,
2013-07-10 03:33:00,68.0,65.0,29.88,West,270,0.0,0.0,90,0.00,,,0.00,,2013-07-10 07:33:00,
2013-07-10 03:43:00,68.0,65.0,29.88,West,270,0.0,0.0,90,0.00,,,0.00,,2013-07-10 07:43:00,
2013-07-10 03:53:00,68.0,65.0,29.88,NW,315,0.0,0.0,90,0.00,,,0.00,,2013-07-10 07:53:00,
2013-07-10 04:02:00,68.0,65.0,29.88,WSW,248,0.0,2.0,90,0.00,,,0.00,,2013-07-10 08:02:00,
2013-07-10 04:11:00,68.0,65.0,29.88,WSW,248,0.0,2.0,90,0.00,,,0.00,,2013-07-10 08:11:00,
2013-07-10 04:23:00,68.0,65.0,29.88,West,270,1.0,2.0,90,0.00,,,0.00,,2013-07-10 08:23:00,
2013-07-10 04:33:00,68.0,65.0,29.88,SW,225,1.0,2.0,90,0.00,,,0.00,,2013-07-10 08:33:00,
2013-07-10 04:42:00,68.0,65.0,29.88,SW,225,1.0,2.0,90,0.00,,,0.00,,2013-07-10 08:42:00,
2013-07-10 04:53:00,68.0,65.0,29.88,WSW,248,1.0,2.0,91,0.00,,,0.00,,2013-07-10 08:53:00,
2013-07-10 05:02:00,68.0,65.0,29.87,WSW,248,1.0,2.0,91,0.00,,,0.00,,2013-07-10 09:02:00,
2013-07-10 05:12:00,68.0,65.0,29.87,WSW,248,1.0,2.0,91,0.00,,,0.00,,2013-07-10 09:12:00,
2013-07-10 05:32:00,68.0,65.0,29.87,ENE,68,0.0,0.0,91,0.00,,,0.00,,2013-07-10 09:32:00,
2013-07-10 05:42:00,68.0,65.0,29.87,ENE,68,0.0,0.0,91,0.00,,,0.00,,2013-07-10 09:42:00,
2013-07-10 05:53:00,68.0,65.0,29.87,WSW,248,0.0,2.0,91,0.00,,,0.00,,2013-07-10 09:53:00,
2013-07-10 06:01:00,68.0,65.0,29.88,SSW,202,1.0,2.0,91,0.00,,,0.00,,2013-07-10 10:01:00,
2013-07-10 06:13:00,68.0,65.0,29.88,SSW,202,1.0,2.0,91,0.00,,,0.00,,2013-07-10 10:13:00,
2013-07-10 06:32:00,68.0,65.0,29.88,WSW,248,0.0,0.0,91,0.00,,,0.00,,2013-07-10 10:32:00,
2013-07-10 06:51:00,-999.0,-99.9,29.88,WSW,248,0.0,0.0,-999,-99.99,,,-99.99,,2013-07-10 10:51:00,
2013-07-10 07:00:00,-999.0,-99.9,29.87,WSW,248,2.0,2.0,-999,-99.99,,,-99.99,,2013-07-10 11:00:00,
2013-07-10 07:11:00,68.0,65.0,29.87,WSW,248,1.0,2.0,91,0.00,,,0.00,,2013-07-10 11:11:00,
2013-07-10 07:33:00,69.0,67.0,29.88,West,270,2.0,5.0,92,0.00,,,0.00,,2013-07-10 11:33:00,
2013-07-10 07:43:00,69.0,67.0,29.88,West,270,2.0,5.0,92,0.00,,,0.00,,2013-07-10 11:43:00,
2013-07-10 07:52:00,70.0,68.0,29.88,WSW,248,2.0,5.0,92,0.00,,,0.00,,2013-07-10 11:52:00,
2013-07-10 08:02:00,71.0,69.0,29.88,WSW,248,3.0,5.0,92,0.00,,,0.00,,2013-07-10 12:02:00,
2013-07-10 08:11:00,71.0,69.0,29.88,WSW,248,3.0,5.0,92,0.00,,,0.00,,2013-07-10 12:11:00,
2013-07-10 08:22:00,71.0,68.0,29.87,SW,225,2.0,5.0,91,0.00,,,0.00,,2013-07-10 12:22:00,
2013-07-10 08:43:00,71.0,68.0,29.87,WSW,248,2.0,3.0,91,0.00,,,0.00,,2013-07-10 12:43:00,
2013-07-10 08:53:00,72.0,69.0,29.88,WSW,248,3.0,6.0,90,0.00,,,0.00,,2013-07-10 12:53:00,
2013-07-10 09:01:00,72.0,69.0,29.88,WNW,292,3.0,7.0,89,0.00,,,0.00,,2013-07-10 13:01:00,
2013-07-10 09:11:00,72.0,69.0,29.88,WNW,292,3.0,7.0,89,0.00,,,0.00,,2013-07-10 13:11:00,
2013-07-10 09:22:00,72.0,68.0,29.88,WSW,248,5.0,7.0,88,0.00,,,0.00,,2013-07-10 13:22:00,
2013-07-10 09:32:00,72.0,68.0,29.88,West,270,3.0,7.0,87,0.00,,,0.00,,2013-07-10 13:32:00,
2013-07-10 09:43:00,72.0,68.0,29.88,West,270,3.0,7.0,87,0.00,,,0.00,,2013-07-10 13:43:00,
2013-07-10 09:52:00,73.0,69.0,29.88,South,180,3.0,6.0,86,0.00,,,0.00,,2013-07-10 13:52:00,
2013-07-10 10:01:00,73.0,69.0,29.87,WNW,292,3.0,7.0,86,0.00,,,0.00,,2013-07-10 14:01:00,
2013-07-10 10:12:00,73.0,69.0,29.87,WNW,292,3.0,7.0,86,0.00,,,0.00,,2013-07-10 14:12:00,
2013-07-10 10:43:00,74.0,69.0,29.86,WSW,248,3.0,7.0,85,0.00,,,0.00,,2013-07-10 14:43:00,
2013-07-10 10:53:00,74.0,69.0,29.86,WSW,248,5.0,10.0,85,0.00,,,0.00,,2013-07-10 14:53:00,
2013-07-10 11:01:00,74.0,70.0,29.86,SW,225,3.0,6.0,86,0.00,,,0.00,,2013-07-10 15:01:00,
2013-07-10 11:11:00,74.0,70.0,29.86,SW,225,3.0,6.0,86,0.00,,,0.00,,2013-07-10 15:11:00,
2013-07-10 11:34:00,75.0,69.0,29.85,SW,225,5.0,8.0,82,0.00,,,0.00,,2013-07-10 15:34:00,
2013-07-10 11:42:00,75.0,69.0,29.85,SW,225,5.0,8.0,82,0.00,,,0.00,,2013-07-10 15:42:00,
2013-07-10 11:52:00,75.0,69.0,29.85,WSW,248,6.0,8.0,82,0.00,,,0.00,,2013-07-10 15:52:00,
2013-07-10 12:01:00,75.0,69.0,29.85,South,180,5.0,8.0,83,0.00,,,0.00,,2013-07-10 16:01:00,
2013-07-10 12:11:00,75.0,69.0,29.85,South,180,5.0,8.0,83,0.00,,,0.00,,2013-07-10 16:11:00,
2013-07-10 12:44:00,77.0,71.0,29.83,WSW,248,5.0,9.0,82,0.00,,,0.00,,2013-07-10 16:44:00,
2013-07-10 12:53:00,76.0,69.0,29.83,SW,225,5.0,12.0,79,0.00,,,0.00,,2013-07-10 16:53:00,
2013-07-10 13:02:00,77.0,70.0,29.82,WSW,248,7.0,12.0,79,0.00,,,0.00,,2013-07-10 17:02:00,
2013-07-10 13:12:00,77.0,70.0,29.82,WSW,248,7.0,12.0,79,0.00,,,0.00,,2013-07-10 17:12:00,
2013-07-10 13:23:00,78.0,71.0,29.80,WSW,248,6.0,10.0,78,0.00,,,0.00,,2013-07-10 17:23:00,
2013-07-10 13:43:00,77.0,70.0,29.80,WSW,248,6.0,15.0,78,0.00,,,0.00,,2013-07-10 17:43:00,
2013-07-10 13:53:00,78.0,71.0,29.80,West,270,6.0,9.0,78,0.00,,,0.00,,2013-07-10 17:53:00,
2013-07-10 14:02:00,79.0,70.0,29.78,WSW,248,5.0,9.0,75,0.00,,,0.00,,2013-07-10 18:02:00,
2013-07-10 14:11:00,79.0,70.0,29.78,WSW,248,5.0,9.0,75,0.00,,,0.00,,2013-07-10 18:11:00,
2013-07-10 14:22:00,80.0,71.0,29.78,SW,225,5.0,10.0,73,0.00,,,0.00,,2013-07-10 18:22:00,
2013-07-10 14:32:00,80.0,71.0,29.78,West,270,6.0,10.0,73,0.00,,,0.00,,2013-07-10 18:32:00,
2013-07-10 14:44:00,80.0,71.0,29.78,West,270,6.0,10.0,73,0.00,,,0.00,,2013-07-10 18:44:00,
2013-07-10 14:53:00,82.0,71.0,29.75,West,270,6.0,10.0,70,0.00,,,0.00,,2013-07-10 18:53:00,
2013-07-10 15:01:00,82.0,71.0,29.75,West,270,6.0,10.0,70,0.00,,,0.00,,2013-07-10 19:01:00,
2013-07-10 15:11:00,82.0,71.0,29.75,West,270,6.0,10.0,70,0.00,,,0.00,,2013-07-10 19:11:00,
2013-07-10 15:22:00,83.0,71.0,29.84,West,270,6.0,10.0,68,0.00,,,0.00,,2013-07-10 19:22:00,
2013-07-10 15:32:00,84.0,70.0,29.84,WSW,248,8.0,9.0,64,0.00,,,0.00,,2013-07-10 19:32:00,
2013-07-10 15:42:00,84.0,70.0,29.84,WSW,248,8.0,9.0,64,0.00,,,0.00,,2013-07-10 19:42:00,
2013-07-10 15:53:00,84.0,70.0,29.84,SW,225,6.0,13.0,64,0.00,,,0.00,,2013-07-10 19:53:00,
2013-07-10 16:02:00,85.0,71.0,29.88,WSW,248,6.0,9.0,63,0.00,,,0.00,,2013-07-10 20:02:00,
2013-07-10 16:11:00,85.0,71.0,29.88,WSW,248,6.0,9.0,63,0.00,,,0.00,,2013-07-10 20:11:00,
2013-07-10 16:22:00,86.0,71.0,29.94,WSW,248,6.0,8.0,62,0.00,,,0.00,,2013-07-10 20:22:00,
2013-07-10 16:32:00,87.0,72.0,29.94,WSW,248,5.0,9.0,61,0.00,,,0.00,,2013-07-10 20:32:00,
2013-07-10 16:43:00,87.0,72.0,29.94,WSW,248,5.0,9.0,61,0.00,,,0.00,,2013-07-10 20:43:00,
2013-07-10 16:52:00,87.0,72.0,29.94,WSW,248,5.0,9.0,61,0.00,,,0.00,,2013-07-10 20:52:00,
2013-07-10 17:01:00,85.0,70.0,29.87,SW,225,5.0,12.0,62,0.00,,,0.00,,2013-07-10 21:01:00,
2013-07-10 17:11:00,85.0,70.0,29.87,SW,225,5.0,12.0,62,0.00,,,0.00,,2013-07-10 21:11:00,
2013-07-10 17:22:00,85.0,71.0,29.88,SW,225,6.0,12.0,63,0.00,,,0.00,,2013-07-10 21:22:00,
2013-07-10 17:32:00,84.0,71.0,29.88,SSW,202,3.0,9.0,65,0.00,,,0.00,,2013-07-10 21:32:00,
2013-07-10 17:42:00,84.0,71.0,29.88,SSW,202,3.0,9.0,65,0.00,,,0.00,,2013-07-10 21:42:00,
2013-07-10 17:52:00,82.0,70.0,29.80,WSW,248,3.0,7.0,67,0.00,,,0.00,,2013-07-10 21:52:00,
2013-07-10 18:01:00,82.0,71.0,29.75,WSW,248,4.0,7.0,69,0.00,,,0.00,,2013-07-10 22:01:00,
2013-07-10 18:11:00,82.0,71.0,29.75,WSW,248,4.0,7.0,69,0.00,,,0.00,,2013-07-10 22:11:00,
2013-07-10 18:21:00,81.0,70.0,29.72,SW,225,3.0,7.0,70,0.00,,,0.00,,2013-07-10 22:21:00,
2013-07-10 18:33:00,81.0,71.0,29.72,WSW,248,3.0,5.0,71,0.00,,,0.00,,2013-07-10 22:33:00,
2013-07-10 18:43:00,81.0,71.0,29.72,WSW,248,3.0,5.0,71,0.00,,,0.00,,2013-07-10 22:43:00,
2013-07-10 18:53:00,81.0,71.0,29.69,WSW,248,2.0,6.0,72,0.00,,,0.00,,2013-07-10 22:53:00,
2013-07-10 19:01:00,80.0,71.0,29.69,NE,45,3.0,6.0,73,0.00,,,0.00,,2013-07-10 23:01:00,
2013-07-10 19:11:00,80.0,71.0,29.69,NE,45,3.0,6.0,73,0.00,,,0.00,,2013-07-10 23:11:00,
2013-07-10 19:22:00,80.0,71.0,29.68,WSW,248,2.0,7.0,74,0.00,,,0.00,,2013-07-10 23:22:00,
2013-07-10 19:32:00,80.0,71.0,29.68,SSW,202,2.0,5.0,75,0.00,,,0.00,,2013-07-10 23:32:00,
2013-07-10 19:43:00,80.0,71.0,29.68,SSW,202,2.0,5.0,75,0.00,,,0.00,,2013-07-10 23:43:00,
2013-07-10 19:52:00,79.0,70.0,29.68,West,270,2.0,6.0,75,0.00,,,0.00,,2013-07-10 23:52:00,
2013-07-10 20:01:00,79.0,71.0,29.68,South,180,1.0,2.0,76,0.00,,,0.00,,2013-07-11 00:01:00,
2013-07-10 20:11:00,79.0,71.0,29.68,South,180,1.0,2.0,76,0.00,,,0.00,,2013-07-11 00:11:00,
2013-07-10 20:22:00,78.0,70.0,29.69,SE,135,2.0,5.0,77,0.00,,,0.00,,2013-07-11 00:22:00,
2013-07-10 20:32:00,78.0,71.0,29.69,WSW,248,1.0,2.0,78,0.00,,,0.00,,2013-07-11 00:32:00,
2013-07-10 20:42:00,78.0,71.0,29.69,WSW,248,1.0,2.0,78,0.00,,,0.00,,2013-07-11 00:42:00,
2013-07-10 20:52:00,78.0,71.0,29.69,WSW,248,1.0,2.0,78,0.00,,,0.00,,2013-07-11 00:52:00,
2013-07-10 21:01:00,77.0,70.0,29.70,SW,225,2.0,5.0,78,0.00,,,0.00,,2013-07-11 01:01:00,
2013-07-10 21:11:00,77.0,70.0,29.70,WSW,248,1.0,3.0,79,0.00,,,0.00,,2013-07-11 01:11:00,
2013-07-10 21:22:00,77.0,70.0,29.70,WSW,248,1.0,3.0,79,0.00,,,0.00,,2013-07-11 01:22:00,
2013-07-10 21:32:00,76.0,69.0,29.71,WNW,292,1.0,3.0,80,0.00,,,0.00,,2013-07-11 01:32:00,
2013-07-10 21:43:00,76.0,69.0,29.71,WNW,292,1.0,3.0,80,0.00,,,0.00,,2013-07-11 01:43:00,
2013-07-10 21:52:00,76.0,68.0,29.71,WNW,292,3.0,7.0,76,0.00,,,0.00,,2013-07-11 01:52:00,
2013-07-10 22:02:00,73.0,65.0,29.80,NNW,338,3.0,8.0,77,0.00,,,0.00,,2013-07-11 02:02:00,
2013-07-10 22:11:00,73.0,65.0,29.80,NNW,338,3.0,8.0,77,0.00,,,0.00,,2013-07-11 02:11:00,
2013-07-10 22:32:00,67.0,63.0,29.78,NNW,338,0.0,1.0,88,0.00,,,0.00,,2013-07-11 02:32:00,
2013-07-10 22:43:00,67.0,63.0,29.78,NNW,338,0.0,1.0,88,0.00,,,0.00,,2013-07-11 02:43:00,
2013-07-10 22:53:00,67.0,64.0,29.77,WSW,248,1.0,2.0,90,0.00,,,0.00,,2013-07-11 02:53:00,
2013-07-10 23:02:00,67.0,64.0,29.78,West,270,0.0,2.0,91,0.00,,,0.00,,2013-07-11 03:02:00,
2013-07-10 23:11:00,67.0,64.0,29.78,West,270,0.0,2.0,91,0.00,,,0.00,,2013-07-11 03:11:00,
2013-07-10 23:22:00,67.0,64.0,29.80,North,0,1.0,2.0,91,0.00,,,0.00,,2013-07-11 03:22:00,
2013-07-10 23:42:00,67.0,64.0,29.80,ENE,68,0.0,0.0,91,0.00,,,0.00,,2013-07-11 03:42:00,